Time;durP1;ratioP1;P1;durP2;ratioP2;P2;SDS_P1;SDS_P2;PMS_P1;PMS_P2;Temp;Humidity;BMP_temperature;BMP_pressure;BME280_temperature;BME280_humidity;BME280_pressure;Samples;Min_cycle;Max_cycle;Signal;HPM_P1;HPM_P2
2023/04/04 00:00:06;;;;;;;10.65;3.78;;;2.00;99.90;;;;;;5049040;28;20045;-82
2023/04/04 00:02:33;;;;;;;12.07;4.88;;;1.90;99.90;;;;;;5040789;28;20560;-80
2023/04/04 00:05:00;;;;;;;14.88;4.88;;;1.90;99.90;;;;;;5014619;28;20149;-81
2023/04/04 00:07:27;;;;;;;11.98;3.88;;;1.90;99.90;;;;;;5012753;28;20042;-81
2023/04/04 00:09:53;;;;;;;16.58;4.35;;;1.90;99.90;;;;;;5014289;28;20048;-80
2023/04/04 00:12:20;;;;;;;11.98;3.90;;;1.90;99.90;;;;;;5014357;28;20041;-82
2023/04/04 00:17:36;;;;;;;13.10;3.35;;;1.80;99.90;;;;;;5012770;28;20113;-82
2023/04/04 00:20:03;;;;;;;12.48;2.97;;;1.70;99.90;;;;;;5011892;28;20034;-80
2023/04/04 00:22:30;;;;;;;7.22;2.85;;;1.70;99.90;;;;;;4997159;28;20077;-80
2023/04/04 00:24:57;;;;;;;8.32;2.90;;;1.60;99.90;;;;;;5014424;28;20248;-81
2023/04/04 00:27:25;;;;;;;7.40;2.47;;;1.60;99.90;;;;;;5012566;28;20057;-80
2023/04/04 00:29:51;;;;;;;8.40;3.35;;;1.60;99.90;;;;;;5014671;28;20069;-80
2023/04/04 00:32:18;;;;;;;10.20;3.20;;;1.60;99.90;;;;;;5016972;28;20058;-80
2023/04/04 00:37:31;;;;;;;15.10;3.10;;;1.40;99.90;;;;;;5016845;28;20119;-80
2023/04/04 00:39:58;;;;;;;8.45;2.90;;;1.40;99.90;;;;;;5015910;28;20049;-80
2023/04/04 00:42:25;;;;;;;7.10;2.65;;;1.40;99.90;;;;;;5017491;28;20133;-80
2023/04/04 00:44:53;;;;;;;12.85;3.53;;;1.40;99.90;;;;;;5016464;28;20037;-80
2023/04/04 00:47:19;;;;;;;13.95;3.35;;;1.40;99.90;;;;;;5015728;28;20500;-81
2023/04/04 00:49:46;;;;;;;10.77;2.92;;;1.40;99.90;;;;;;5017324;28;20034;-82
2023/04/04 00:52:13;;;;;;;7.85;3.10;;;1.30;99.90;;;;;;5016576;28;20368;-81
2023/04/04 00:54:40;;;;;;;9.63;3.28;;;1.30;99.90;;;;;;5015787;28;20037;-82
2023/04/04 00:57:07;;;;;;;7.00;2.75;;;1.30;99.90;;;;;;5016708;28;20046;-81
2023/04/04 00:59:34;;;;;;;14.30;3.03;;;1.30;99.90;;;;;;5015491;28;20045;-80
2023/04/04 01:02:00;;;;;;;7.95;3.03;;;1.30;99.90;;;;;;5016303;28;20100;-80
2023/04/04 01:04:30;;;;;;;7.35;2.63;;;1.30;99.90;;;;;;5016660;28;20050;-80
2023/04/04 01:06:57;;;;;;;8.15;2.60;;;1.20;99.90;;;;;;5032147;28;20049;-80
2023/04/04 01:09:24;;;;;;;16.08;3.75;;;1.20;99.90;;;;;;5016032;28;20049;-80
2023/04/04 01:11:52;;;;;;;8.05;2.92;;;1.20;99.90;;;;;;5016180;28;20127;-79
2023/04/04 01:17:05;;;;;;;6.15;2.45;;;1.00;99.90;;;;;;5016165;28;20069;-80
2023/04/04 01:19:32;;;;;;;10.77;3.72;;;1.00;99.90;;;;;;5014976;28;20042;-80
2023/04/04 01:22:02;;;;;;;11.32;2.90;;;1.00;99.90;;;;;;5016286;28;20046;-81
2023/04/04 01:24:29;;;;;;;5.70;2.75;;;1.00;99.90;;;;;;5015961;28;20100;-81
2023/04/04 01:26:59;;;;;;;13.57;2.95;;;1.00;99.90;;;;;;5016293;28;20045;-80
2023/04/04 01:29:26;;;;;;;8.93;3.10;;;1.00;99.90;;;;;;5032149;28;20042;-81
2023/04/04 01:31:54;;;;;;;14.45;2.50;;;1.00;99.90;;;;;;5015750;28;20046;-80
2023/04/04 01:36:52;;;;;;;16.67;3.15;;;0.90;99.90;;;;;;5017077;28;20420;-80
2023/04/04 01:39:19;;;;;;;9.90;3.10;;;0.90;99.90;;;;;;5015760;28;20045;-80
2023/04/04 01:41:46;;;;;;;14.88;4.53;;;0.90;99.90;;;;;;5015358;28;20053;-80
2023/04/04 01:44:14;;;;;;;11.63;2.95;;;0.90;99.90;;;;;;5015589;28;20053;-80
2023/04/04 01:46:41;;;;;;;10.82;3.10;;;0.80;99.90;;;;;;5031128;28;20057;-80
2023/04/04 01:49:10;;;;;;;7.35;2.90;;;0.70;99.90;;;;;;5015353;28;20056;-80
2023/04/04 01:51:39;;;;;;;8.82;3.53;;;0.60;99.90;;;;;;5016493;28;20045;-80
2023/04/04 01:54:06;;;;;;;11.43;3.03;;;0.60;99.90;;;;;;5030941;28;20431;-80
2023/04/04 01:56:33;;;;;;;8.43;2.85;;;0.60;99.90;;;;;;5015678;28;20069;-80
2023/04/04 01:59:00;;;;;;;8.43;3.08;;;0.70;99.90;;;;;;5015171;28;20095;-80
2023/04/04 02:01:27;;;;;;;9.43;3.15;;;0.60;99.90;;;;;;5030925;28;20072;-81
2023/04/04 02:03:57;;;;;;;10.05;2.80;;;0.60;99.90;;;;;;5015245;28;20049;-80
2023/04/04 02:06:23;;;;;;;15.23;2.85;;;0.60;99.90;;;;;;5030817;28;20053;-81
2023/04/04 02:08:50;;;;;;;12.80;2.72;;;0.60;99.90;;;;;;5014908;28;20100;-81
2023/04/04 02:11:17;;;;;;;8.93;3.72;;;0.60;99.90;;;;;;5031772;28;20046;-80
2023/04/04 02:13:45;;;;;;;11.02;3.05;;;0.60;99.90;;;;;;5014149;28;20487;-81
2023/04/04 02:16:15;;;;;;;15.85;3.85;;;0.50;99.90;;;;;;5015077;28;20054;-80
2023/04/04 02:18:42;;;;;;;6.80;2.80;;;0.50;99.90;;;;;;5014797;28;20092;-80
2023/04/04 02:21:09;;;;;;;8.00;3.35;;;0.50;99.90;;;;;;5014017;28;20045;-80
2023/04/04 02:23:37;;;;;;;6.00;2.50;;;0.50;99.90;;;;;;5015582;28;20435;-80
2023/04/04 02:26:04;;;;;;;14.77;3.08;;;0.50;99.90;;;;;;5014163;28;20045;-80
2023/04/04 02:28:31;;;;;;;9.35;3.00;;;0.40;99.90;;;;;;5014578;28;20054;-81
2023/04/04 02:30:58;;;;;;;7.93;3.25;;;0.40;99.90;;;;;;5014819;28;20053;-80
2023/04/04 02:33:25;;;;;;;7.60;2.47;;;0.40;99.90;;;;;;5013758;28;20045;-79
2023/04/04 02:35:53;;;;;;;9.38;2.92;;;0.40;99.90;;;;;;5014710;28;20060;-80
2023/04/04 02:38:20;;;;;;;9.75;2.40;;;0.30;99.90;;;;;;5014370;28;20123;-80
2023/04/04 02:40:47;;;;;;;7.18;2.65;;;0.30;99.90;;;;;;5013674;28;20085;-80
2023/04/04 02:43:14;;;;;;;8.90;3.03;;;0.30;99.90;;;;;;5014523;28;20148;-80
2023/04/04 02:45:41;;;;;;;8.60;3.45;;;0.30;99.90;;;;;;5014509;28;20053;-80
2023/04/04 02:48:16;;;;;;;7.93;2.95;;;0.30;99.90;;;;;;5014176;28;20062;-80
2023/04/04 02:50:46;;;;;;;21.77;3.45;;;0.20;99.90;;;;;;5014421;28;20042;-80
2023/04/04 02:53:14;;;;;;;8.02;2.85;;;0.20;99.90;;;;;;5013165;28;20396;-80
2023/04/04 02:55:41;;;;;;;7.30;2.65;;;0.20;99.90;;;;;;5014491;28;20044;-79
2023/04/04 02:58:08;;;;;;;9.23;2.88;;;0.20;99.90;;;;;;5013867;28;20093;-81
2023/04/04 03:00:35;;;;;;;10.63;3.22;;;0.20;99.90;;;;;;5029718;28;20038;-81
2023/04/04 03:03:03;;;;;;;7.18;2.40;;;0.10;99.90;;;;;;5014166;28;20108;-81
2023/04/04 03:05:34;;;;;;;9.00;3.03;;;0.10;99.90;;;;;;5014487;28;20038;-82
2023/04/04 03:08:03;;;;;;;7.22;2.55;;;0.10;99.90;;;;;;5012994;28;20046;-79
2023/04/04 03:10:30;;;;;;;15.25;2.92;;;0.10;99.90;;;;;;5014004;28;20049;-81
2023/04/04 03:12:57;;;;;;;7.30;3.00;;;0.10;99.90;;;;;;5014036;28;20049;-80
2023/04/04 03:15:26;;;;;;;10.80;2.65;;;0.10;99.90;;;;;;5014001;28;20038;-80
2023/04/04 03:17:53;;;;;;;8.38;2.50;;;0.10;99.90;;;;;;5013770;28;20060;-81
2023/04/04 03:20:23;;;;;;;8.10;2.50;;;0.10;99.90;;;;;;5013107;28;20066;-80
2023/04/04 03:22:50;;;;;;;9.85;3.53;;;0.10;99.90;;;;;;5014940;28;20052;-80
2023/04/04 03:25:17;;;;;;;10.18;2.65;;;0.10;99.90;;;;;;5013908;28;20423;-80
2023/04/04 03:27:44;;;;;;;7.10;2.80;;;0.00;99.90;;;;;;5012772;28;20092;-79
2023/04/04 03:30:18;;;;;;;12.82;3.25;;;0.00;99.90;;;;;;5013887;28;20046;-80
2023/04/04 03:32:44;;;;;;;8.80;3.15;;;0.00;99.90;;;;;;5012919;28;20064;-80
2023/04/04 03:37:57;;;;;;;14.00;3.55;;;-0.10;99.90;;;;;;5030271;28;20133;-80
2023/04/04 03:40:24;;;;;;;8.40;2.75;;;-0.10;99.90;;;;;;5012796;28;20432;-80
2023/04/04 03:42:51;;;;;;;14.60;3.90;;;-0.20;99.90;;;;;;5030130;28;20145;-81
2023/04/04 03:45:18;;;;;;;10.25;3.15;;;-0.20;99.90;;;;;;5013676;28;20038;-81
2023/04/04 03:47:45;;;;;;;6.43;2.78;;;-0.20;99.90;;;;;;5013568;28;20042;-80
2023/04/04 03:50:12;;;;;;;8.20;3.10;;;-0.20;99.90;;;;;;5014125;28;20042;-80
2023/04/04 03:52:46;;;;;;;9.60;3.53;;;-0.20;99.90;;;;;;5013222;28;20136;-80
2023/04/04 03:55:14;;;;;;;7.90;2.90;;;-0.20;99.90;;;;;;5014481;28;20043;-81
2023/04/04 03:57:41;;;;;;;12.00;3.45;;;-0.20;99.90;;;;;;5013476;28;20034;-80
2023/04/04 04:00:10;;;;;;;11.82;3.33;;;-0.20;99.90;;;;;;5012757;28;20416;-80
2023/04/04 04:02:37;;;;;;;8.50;3.08;;;-0.10;99.90;;;;;;5014757;28;20045;-81
2023/04/04 04:05:05;;;;;;;12.13;3.53;;;-0.10;99.90;;;;;;4998411;28;20050;-80
2023/04/04 04:07:31;;;;;;;9.45;3.08;;;-0.10;99.90;;;;;;5000170;28;20069;-80
2023/04/04 04:09:58;;;;;;;8.05;3.13;;;-0.10;99.90;;;;;;5001130;28;20136;-80
2023/04/04 04:12:25;;;;;;;8.32;3.28;;;-0.20;99.90;;;;;;5000270;28;20423;-79
2023/04/04 04:14:51;;;;;;;10.30;3.40;;;-0.20;99.90;;;;;;5000847;28;20349;-81
2023/04/04 04:17:18;;;;;;;8.85;3.17;;;-0.30;99.90;;;;;;5017446;28;20137;-80
2023/04/04 04:19:46;;;;;;;13.13;3.47;;;-0.30;99.90;;;;;;5032411;28;20074;-80
2023/04/04 04:22:13;;;;;;;13.88;3.58;;;-0.30;99.90;;;;;;5000689;28;20127;-80
2023/04/04 04:24:43;;;;;;;9.80;3.38;;;-0.30;99.90;;;;;;5000992;28;20042;-80
2023/04/04 04:27:10;;;;;;;8.90;3.28;;;-0.40;99.90;;;;;;5032617;28;20049;-80
2023/04/04 04:29:37;;;;;;;7.80;3.20;;;-0.40;99.90;;;;;;5033263;28;20065;-80
2023/04/04 04:32:04;;;;;;;9.98;2.85;;;-0.40;99.90;;;;;;5000624;28;20476;-80
2023/04/04 04:34:35;;;;;;;11.00;3.08;;;-0.40;99.90;;;;;;5032450;28;20061;-80
2023/04/04 04:37:02;;;;;;;9.02;3.67;;;-0.40;99.90;;;;;;5016861;28;20045;-81
2023/04/04 04:39:36;;;;;;;11.80;3.33;;;-0.40;99.90;;;;;;5015967;28;20054;-80
2023/04/04 04:42:12;;;;;;;14.13;4.03;;;-0.50;99.90;;;;;;5001822;28;20064;-79
2023/04/04 04:44:46;;;;;;;8.95;3.20;;;-0.50;99.90;;;;;;5016738;28;20077;-80
2023/04/04 04:47:13;;;;;;;9.30;3.42;;;-0.40;99.90;;;;;;5015710;28;20053;-80
2023/04/04 04:49:42;;;;;;;18.75;4.47;;;-0.40;99.90;;;;;;5000127;28;20038;-81
2023/04/04 04:52:10;;;;;;;10.27;4.32;;;-0.40;99.90;;;;;;5000487;28;20140;-79
2023/04/04 04:54:45;;;;;;;24.98;4.63;;;-0.40;99.90;;;;;;4999870;28;20081;-78
2023/04/04 04:57:12;;;;;;;11.80;3.88;;;-0.50;99.90;;;;;;5016462;28;20480;-80
2023/04/04 04:59:42;;;;;;;12.02;4.07;;;-0.60;99.90;;;;;;5031814;28;20129;-80
2023/04/04 05:02:11;;;;;;;18.15;4.15;;;-0.60;99.90;;;;;;5000502;28;20042;-80
2023/04/04 05:04:44;;;;;;;11.90;3.47;;;-0.60;99.90;;;;;;5016248;28;20464;-80
2023/04/04 05:07:13;;;;;;;15.23;4.95;;;-0.70;99.90;;;;;;5015489;28;20050;-80
2023/04/04 05:09:43;;;;;;;12.25;3.88;;;-0.70;99.90;;;;;;5016071;28;20060;-81
2023/04/04 05:12:10;;;;;;;13.05;4.43;;;-0.70;99.90;;;;;;5016198;28;20541;-80
2023/04/04 05:17:27;;;;;;;11.55;4.28;;;-0.70;99.90;;;;;;5015763;28;20054;-80
2023/04/04 05:20:01;;;;;;;12.65;4.35;;;-0.70;99.90;;;;;;5015345;28;20042;-80
2023/04/04 05:22:28;;;;;;;9.70;3.45;;;-0.80;99.90;;;;;;5016126;28;20100;-80
2023/04/04 05:27:46;;;;;;;8.52;3.08;;;-0.80;99.90;;;;;;5014955;28;20053;-81
2023/04/04 05:30:15;;;;;;;13.60;3.33;;;-0.90;99.90;;;;;;5015870;28;20104;-80
2023/04/04 05:32:54;;;;;;;13.20;3.72;;;-0.90;99.90;;;;;;5014989;28;20053;-80
2023/04/04 05:35:25;;;;;;;11.50;4.13;;;-0.90;99.90;;;;;;5015919;28;20128;-79
2023/04/04 05:37:54;;;;;;;11.25;3.20;;;-0.90;99.90;;;;;;5015286;28;20057;-79
2023/04/04 05:40:21;;;;;;;10.68;3.53;;;-0.80;99.90;;;;;;5014992;28;20056;-80
2023/04/04 05:42:54;;;;;;;11.05;3.63;;;-0.80;99.90;;;;;;5015517;28;20507;-79
2023/04/04 05:45:23;;;;;;;9.63;3.78;;;-0.80;99.90;;;;;;5015517;28;20064;-80
2023/04/04 05:47:50;;;;;;;12.55;3.65;;;-0.80;99.90;;;;;;5015230;28;20046;-80
2023/04/04 05:50:17;;;;;;;12.00;4.53;;;-0.80;99.90;;;;;;5016286;28;20060;-80
2023/04/04 05:52:47;;;;;;;15.73;4.35;;;-0.70;99.90;;;;;;5014484;28;20492;-79
2023/04/04 05:55:15;;;;;;;9.75;4.30;;;-0.60;99.90;;;;;;5016420;28;20038;-79
2023/04/04 05:57:42;;;;;;;10.27;4.00;;;-0.60;99.90;;;;;;5015330;28;20179;-80
2023/04/04 06:00:09;;;;;;;11.52;3.78;;;-0.60;99.90;;;;;;5014727;28;20472;-80
2023/04/04 06:02:40;;;;;;;9.05;3.70;;;-0.50;99.90;;;;;;5015407;28;20149;-80
2023/04/04 06:05:15;;;;;;;9.48;4.20;;;-0.50;99.90;;;;;;5014941;28;20419;-79
2023/04/04 06:07:42;;;;;;;14.02;4.60;;;-0.50;99.90;;;;;;5014384;28;20142;-79
2023/04/04 06:10:09;;;;;;;16.45;4.10;;;-0.40;99.90;;;;;;5015212;28;20128;-79
2023/04/04 06:12:36;;;;;;;13.27;4.50;;;-0.40;99.90;;;;;;5014186;28;20050;-79
2023/04/04 06:15:08;;;;;;;18.33;4.30;;;-0.30;99.90;;;;;;5015280;28;20112;-79
2023/04/04 06:17:36;;;;;;;17.27;4.70;;;-0.20;99.90;;;;;;5015051;28;20034;-80
2023/04/04 06:20:04;;;;;;;12.00;4.68;;;-0.10;99.90;;;;;;5014030;28;20062;-80
2023/04/04 06:22:33;;;;;;;12.27;4.88;;;0.00;99.90;;;;;;5015106;28;20042;-80
2023/04/04 06:25:02;;;;;;;12.93;4.63;;;0.00;99.90;;;;;;5014896;28;20446;-79
2023/04/04 06:27:30;;;;;;;12.80;4.75;;;0.10;99.90;;;;;;5013519;28;20065;-80
2023/04/04 06:29:58;;;;;;;15.38;5.13;;;0.20;99.90;;;;;;5014827;28;20357;-79
2023/04/04 06:32:26;;;;;;;14.63;5.80;;;0.30;99.90;;;;;;5013863;28;20046;-79
2023/04/04 06:34:55;;;;;;;20.55;5.93;;;0.50;99.90;;;;;;5014696;28;20046;-80
2023/04/04 06:37:35;;;;;;;14.95;6.43;;;0.60;99.90;;;;;;5014922;28;20038;-80
2023/04/04 06:40:10;;;;;;;21.08;5.97;;;0.70;99.90;;;;;;5013722;28;20622;-80
2023/04/04 06:42:38;;;;;;;17.67;6.15;;;0.80;99.90;;;;;;5014428;28;20057;-80
2023/04/04 06:47:53;;;;;;;16.35;5.28;;;1.10;99.90;;;;;;5013210;28;20053;-80
2023/04/04 06:50:20;;;;;;;17.38;5.43;;;1.30;99.90;;;;;;5014299;28;20053;-80
2023/04/04 06:52:47;;;;;;;17.92;6.28;;;1.40;99.90;;;;;;5013461;28;20136;-79
2023/04/04 06:55:16;;;;;;;21.08;6.63;;;1.60;99.90;;;;;;5013927;28;20042;-80
2023/04/04 06:57:46;;;;;;;17.35;5.85;;;1.80;99.90;;;;;;5013931;28;20484;-80
2023/04/04 07:00:12;;;;;;;17.90;6.63;;;2.00;99.90;;;;;;5013259;28;20050;-80
2023/04/04 07:02:39;;;;;;;18.90;7.00;;;2.20;99.90;;;;;;4997819;28;20065;-80
2023/04/04 07:08:10;;;;;;;22.08;7.40;;;2.50;99.90;;;;;;5030053;28;20072;-79
2023/04/04 07:10:36;;;;;;;19.30;7.50;;;2.70;99.90;;;;;;5015055;28;20068;-81
2023/04/04 07:13:07;;;;;;;20.00;7.30;;;2.90;99.90;;;;;;5029290;28;20467;-79
2023/04/04 07:15:36;;;;;;;23.10;8.38;;;3.10;99.90;;;;;;5014031;28;20049;-80
2023/04/04 07:18:02;;;;;;;25.73;7.43;;;3.20;99.90;;;;;;5013640;28;20144;-80
2023/04/04 07:20:29;;;;;;;20.42;7.07;;;3.20;99.90;;;;;;5014119;28;20072;-79
2023/04/04 07:22:58;;;;;;;23.08;6.88;;;3.30;99.90;;;;;;5013778;28;20042;-80
2023/04/04 07:25:25;;;;;;;18.58;7.25;;;3.40;99.90;;;;;;5030280;28;20480;-80
2023/04/04 07:27:51;;;;;;;18.25;7.03;;;3.70;99.90;;;;;;5029441;28;20038;-79
2023/04/04 07:30:31;;;;;;;15.65;6.63;;;3.80;99.90;;;;;;5015016;28;20346;-79
2023/04/04 07:32:58;;;;;;;18.42;7.30;;;4.00;99.90;;;;;;5013054;28;20071;-80
2023/04/04 07:35:25;;;;;;;19.17;7.60;;;4.20;99.90;;;;;;5013928;28;20046;-80
2023/04/04 07:37:52;;;;;;;19.73;7.68;;;4.40;99.90;;;;;;5030385;28;20057;-80
2023/04/04 07:40:19;;;;;;;20.52;7.97;;;4.40;99.90;;;;;;5014580;28;20123;-80
2023/04/04 07:42:45;;;;;;;16.05;7.13;;;4.50;99.90;;;;;;5034220;28;20065;-80
2023/04/04 07:45:13;;;;;;;16.83;7.47;;;4.60;99.90;;;;;;5034259;28;20041;-80
2023/04/04 07:47:40;;;;;;;17.65;7.13;;;4.80;99.90;;;;;;5017970;28;20038;-80
2023/04/04 07:50:07;;;;;;;16.58;7.05;;;5.00;99.90;;;;;;5018162;28;20057;-79
2023/04/04 07:52:34;;;;;;;16.27;7.25;;;5.10;99.90;;;;;;5033399;28;20121;-80
2023/04/04 07:55:06;;;;;;;17.13;7.53;;;5.20;99.90;;;;;;5016974;28;20037;-81
2023/04/04 07:57:32;;;;;;;19.10;7.18;;;5.30;99.90;;;;;;5028708;28;20133;-80
2023/04/04 07:59:59;;;;;;;20.80;7.47;;;5.50;99.90;;;;;;5053136;28;20069;-81
2023/04/04 08:02:26;;;;;;;14.75;6.72;;;5.60;99.90;;;;;;5045549;28;20042;-81
2023/04/04 08:04:54;;;;;;;18.52;6.95;;;5.80;99.90;;;;;;5017411;28;20052;-80
2023/04/04 08:07:21;;;;;;;21.45;6.13;;;6.10;99.90;;;;;;5017363;28;20050;-81
2023/04/04 08:09:48;;;;;;;19.48;5.20;;;6.30;99.90;;;;;;5017838;28;20037;-81
2023/04/04 08:12:14;;;;;;;17.88;5.40;;;6.60;99.90;;;;;;5017392;28;20050;-80
2023/04/04 08:14:42;;;;;;;16.05;5.03;;;6.80;99.90;;;;;;5032870;28;20050;-81
2023/04/04 08:17:09;;;;;;;14.75;5.75;;;7.00;99.90;;;;;;5017346;28;20053;-81
2023/04/04 08:19:35;;;;;;;13.48;5.30;;;7.10;99.90;;;;;;5002114;28;20034;-83
2023/04/04 08:22:02;;;;;;;12.40;5.15;;;7.30;99.90;;;;;;5018219;28;20049;-84
2023/04/04 08:27:00;;;;;;;15.68;5.18;;;7.50;99.90;;;;;;5016481;28;20054;-83
2023/04/04 08:29:31;;;;;;;13.27;5.32;;;7.60;99.90;;;;;;5017206;28;20049;-85
2023/04/04 08:31:59;;;;;;;19.55;5.82;;;7.70;99.90;;;;;;5033700;28;20457;-83
2023/04/04 08:34:27;;;;;;;15.57;5.45;;;7.80;99.90;;;;;;5015980;28;20038;-83
2023/04/04 08:36:54;;;;;;;19.10;5.90;;;8.00;99.90;;;;;;5033377;28;20038;-83
2023/04/04 08:39:20;;;;;;;17.15;5.47;;;8.10;99.90;;;;;;5016228;28;20060;-83
2023/04/04 08:41:47;;;;;;;14.50;5.32;;;8.30;99.90;;;;;;5016720;28;20061;-83
2023/04/04 08:44:16;;;;;;;14.13;5.07;;;8.40;99.90;;;;;;5033298;28;20045;-85
2023/04/04 08:47:00;;;;;;;12.93;5.03;;;8.50;99.90;;;;;;5012757;28;20038;-89
2023/04/04 08:49:46;;;;;;;15.13;5.00;;;8.60;99.90;;;;;;4985781;28;20053;-84
2023/04/04 08:52:13;;;;;;;15.25;5.30;;;8.70;99.90;;;;;;5012201;28;20046;-81
2023/04/04 08:54:40;;;;;;;15.38;5.53;;;8.80;99.90;;;;;;5014342;28;20141;-82
2023/04/04 08:57:07;;;;;;;17.92;5.68;;;8.90;99.90;;;;;;4999609;28;20042;-82
2023/04/04 08:59:34;;;;;;;14.48;5.47;;;8.90;99.90;;;;;;5015548;28;20049;-82
2023/04/04 09:02:01;;;;;;;15.35;5.53;;;9.00;99.90;;;;;;5015900;28;20052;-82
2023/04/04 09:04:28;;;;;;;17.48;6.00;;;9.20;99.90;;;;;;5015611;28;20053;-82
2023/04/04 09:06:55;;;;;;;12.73;5.13;;;9.30;99.90;;;;;;5031241;28;20112;-82
2023/04/04 09:09:22;;;;;;;16.83;5.25;;;9.50;99.90;;;;;;5015510;28;20046;-82
2023/04/04 09:11:50;;;;;;;16.80;4.72;;;9.70;99.90;;;;;;5015742;28;20480;-83
2023/04/04 09:14:17;;;;;;;11.95;4.63;;;9.80;99.90;;;;;;5014923;28;20050;-82
2023/04/04 09:16:44;;;;;;;16.73;4.55;;;9.80;99.90;;;;;;5031789;28;20049;-82
2023/04/04 09:19:11;;;;;;;13.10;4.72;;;10.00;99.90;;;;;;5031017;28;20046;-83
2023/04/04 09:21:38;;;;;;;15.32;5.28;;;10.00;99.90;;;;;;5032281;28;20046;-83
2023/04/04 09:24:04;;;;;;;12.90;4.72;;;10.00;99.90;;;;;;5015250;28;20456;-83
2023/04/04 09:26:31;;;;;;;13.20;4.85;;;10.00;99.90;;;;;;5014678;28;20038;-83
2023/04/04 09:28:58;;;;;;;17.33;5.43;;;10.00;99.90;;;;;;5015532;28;20049;-83
2023/04/04 09:31:24;;;;;;;19.10;5.05;;;10.10;99.90;;;;;;5015789;28;20056;-83
2023/04/04 09:33:51;;;;;;;20.13;5.47;;;10.00;99.90;;;;;;5014627;28;20081;-83
2023/04/04 09:36:18;;;;;;;11.70;4.43;;;10.20;99.90;;;;;;5032181;28;20042;-83
2023/04/04 09:38:47;;;;;;;16.48;4.68;;;10.30;99.90;;;;;;5014784;28;20041;-83
2023/04/04 09:41:14;;;;;;;10.55;4.90;;;10.40;99.90;;;;;;5014531;28;20049;-82
2023/04/04 09:43:42;;;;;;;20.27;4.55;;;10.50;99.90;;;;;;5031908;28;20049;-82
2023/04/04 09:46:09;;;;;;;10.43;4.32;;;10.50;99.90;;;;;;5015028;28;20500;-82
2023/04/04 09:48:36;;;;;;;14.20;4.45;;;10.60;99.90;;;;;;5015804;28;20053;-83
2023/04/04 09:51:03;;;;;;;12.27;5.15;;;10.60;99.90;;;;;;5015236;28;20065;-82
2023/04/04 09:53:29;;;;;;;14.32;4.43;;;10.70;99.90;;;;;;5014121;28;20046;-82
2023/04/04 09:55:56;;;;;;;12.20;4.95;;;10.90;99.90;;;;;;5015133;28;20103;-83
2023/04/04 09:58:22;;;;;;;14.98;4.95;;;11.00;99.90;;;;;;5014871;28;20065;-83
2023/04/04 10:00:49;;;;;;;13.52;4.43;;;11.10;99.90;;;;;;5030315;28;20479;-83
2023/04/04 10:03:16;;;;;;;11.32;4.40;;;11.30;99.90;;;;;;4999180;28;20042;-83
2023/04/04 10:05:43;;;;;;;10.18;3.90;;;11.50;99.90;;;;;;4996237;28;20381;-84
2023/04/04 10:08:10;;;;;;;11.15;4.32;;;11.60;99.90;;;;;;4994999;28;20070;-83
2023/04/04 10:10:37;;;;;;;11.43;4.03;;;11.60;99.90;;;;;;4995288;28;20109;-83
2023/04/04 10:13:04;;;;;;;9.90;4.03;;;11.80;99.90;;;;;;4978148;28;20051;-83
2023/04/04 10:15:31;;;;;;;12.25;4.38;;;11.90;99.90;;;;;;4978071;28;20389;-83
2023/04/04 10:17:58;;;;;;;15.85;4.03;;;12.10;99.90;;;;;;5011076;28;20141;-83
2023/04/04 10:20:25;;;;;;;10.27;4.10;;;12.30;99.90;;;;;;5009912;28;20044;-84
2023/04/04 10:22:52;;;;;;;8.98;4.10;;;12.50;99.90;;;;;;4978517;28;20057;-84
2023/04/04 10:25:19;;;;;;;10.60;4.18;;;12.60;99.90;;;;;;4995407;28;20046;-84
2023/04/04 10:27:45;;;;;;;8.13;3.92;;;12.70;99.90;;;;;;4993545;28;20134;-83
2023/04/04 10:30:12;;;;;;;11.45;4.28;;;12.80;99.90;;;;;;4995548;28;20077;-84
2023/04/04 10:32:39;;;;;;;13.30;4.00;;;13.00;99.90;;;;;;5010123;28;20046;-84
2023/04/04 10:35:09;;;;;;;11.20;3.97;;;13.10;99.40;;;;;;4994614;28;20400;-83
2023/04/04 10:37:36;;;;;;;12.00;3.80;;;13.30;98.40;;;;;;4993909;28;20412;-83
2023/04/04 10:40:03;;;;;;;9.48;4.00;;;13.50;98.10;;;;;;4978296;28;20046;-83
2023/04/04 10:42:30;;;;;;;10.93;3.83;;;13.70;97.70;;;;;;4994498;28;20054;-83
2023/04/04 10:44:56;;;;;;;10.68;4.25;;;13.90;96.70;;;;;;4978195;28;20374;-84
2023/04/04 10:47:34;;;;;;;14.48;4.15;;;14.30;93.20;;;;;;4993860;28;20130;-83
2023/04/04 10:50:01;;;;;;;9.63;3.92;;;14.60;92.40;;;;;;4994835;28;20077;-82
2023/04/04 10:52:28;;;;;;;8.38;3.80;;;15.00;91.50;;;;;;4992733;28;20046;-82
2023/04/04 10:54:54;;;;;;;10.85;4.30;;;15.30;92.40;;;;;;5010741;28;20034;-83
2023/04/04 10:57:22;;;;;;;11.88;3.90;;;15.60;87.70;;;;;;4978317;28;20050;-83
2023/04/04 10:59:48;;;;;;;11.48;4.10;;;15.70;84.40;;;;;;4993887;28;20038;-83
2023/04/04 11:02:17;;;;;;;9.63;4.00;;;15.80;90.30;;;;;;5000790;28;20096;-83
2023/04/04 11:04:43;;;;;;;11.48;3.90;;;16.00;83.30;;;;;;5013788;28;20077;-82
2023/04/04 11:07:10;;;;;;;10.20;3.75;;;16.40;83.60;;;;;;5012782;28;20057;-84
2023/04/04 11:09:37;;;;;;;14.30;3.90;;;16.70;79.10;;;;;;5014123;28;20476;-86
2023/04/04 11:12:04;;;;;;;11.40;3.90;;;16.90;80.80;;;;;;5014256;28;20104;-83
2023/04/04 11:14:32;;;;;;;10.68;4.38;;;17.10;79.60;;;;;;5013135;28;20042;-86
2023/04/04 11:16:59;;;;;;;9.48;3.78;;;16.90;72.20;;;;;;5014287;28;20388;-82
2023/04/04 11:19:26;;;;;;;9.65;4.05;;;17.10;77.00;;;;;;5009743;28;20069;-84
2023/04/04 11:21:54;;;;;;;10.68;3.95;;;17.40;73.30;;;;;;4996268;28;20052;-87
2023/04/04 11:24:21;;;;;;;13.55;3.72;;;17.60;74.20;;;;;;5013474;28;20073;-86
2023/04/04 11:26:48;;;;;;;12.73;3.95;;;17.50;71.10;;;;;;4995693;28;20046;-87
2023/04/04 11:29:15;;;;;;;9.98;3.45;;;17.50;72.40;;;;;;4996610;28;20111;-84
2023/04/04 11:31:42;;;;;;;10.07;3.67;;;17.70;69.40;;;;;;5012990;28;20073;-84
2023/04/04 11:34:09;;;;;;;7.78;3.38;;;18.10;68.90;;;;;;4996392;28;20427;-82
2023/04/04 11:36:36;;;;;;;8.13;3.72;;;18.30;73.30;;;;;;4996972;28;20049;-85
2023/04/04 11:39:04;;;;;;;9.88;3.50;;;18.40;70.20;;;;;;4997062;28;20042;-85
2023/04/04 11:41:30;;;;;;;11.48;4.15;;;18.60;69.90;;;;;;5013630;28;20049;-84
2023/04/04 11:43:58;;;;;;;11.07;3.70;;;18.30;67.00;;;;;;5013109;28;20048;-85
2023/04/04 11:46:25;;;;;;;10.77;4.18;;;18.40;65.50;;;;;;4996687;28;20046;-84
2023/04/04 11:48:52;;;;;;;10.18;3.85;;;18.70;65.40;;;;;;4997288;28;20069;-84
2023/04/04 11:51:19;;;;;;;11.23;3.78;;;19.00;66.80;;;;;;5013471;28;20038;-83
2023/04/04 11:53:46;;;;;;;9.90;3.83;;;19.00;61.60;;;;;;4996158;28;20461;-84
2023/04/04 11:56:15;;;;;;;8.82;3.40;;;18.60;61.60;;;;;;5013259;28;20089;-85
2023/04/04 11:58:42;;;;;;;8.80;3.58;;;18.90;61.60;;;;;;5013571;28;20080;-83
2023/04/04 12:01:09;;;;;;;6.45;3.13;;;19.30;67.20;;;;;;4996530;28;20050;-84
2023/04/04 12:03:35;;;;;;;12.25;3.92;;;19.70;64.60;;;;;;4997120;28;20038;-84
2023/04/04 12:06:02;;;;;;;8.73;3.95;;;19.90;62.10;;;;;;5013376;28;20072;-85
2023/04/04 12:08:29;;;;;;;10.63;3.65;;;20.10;60.70;;;;;;5014562;28;20124;-85
2023/04/04 12:10:56;;;;;;;10.48;3.50;;;20.30;61.30;;;;;;5014136;28;20050;-85
2023/04/04 12:13:24;;;;;;;10.63;3.67;;;20.40;58.90;;;;;;4995916;28;20046;-85
2023/04/04 12:15:50;;;;;;;11.50;3.47;;;20.60;61.50;;;;;;5014249;28;20052;-84
2023/04/04 12:18:17;;;;;;;8.75;3.95;;;20.90;61.10;;;;;;5013411;28;20049;-85
2023/04/04 12:20:44;;;;;;;8.68;4.20;;;20.80;58.30;;;;;;5012396;28;20346;-84
2023/04/04 12:23:10;;;;;;;11.00;4.25;;;20.90;59.30;;;;;;4997231;28;20041;-85
2023/04/04 12:25:38;;;;;;;11.65;4.72;;;21.10;57.50;;;;;;5014560;28;20038;-86
2023/04/04 12:28:06;;;;;;;10.52;4.43;;;21.30;58.20;;;;;;4999857;28;20034;-85
2023/04/04 12:30:33;;;;;;;12.02;4.60;;;21.40;56.60;;;;;;5000681;28;20052;-87
2023/04/04 12:33:01;;;;;;;12.02;4.88;;;21.20;58.00;;;;;;5000044;28;20034;-86
2023/04/04 12:35:28;;;;;;;10.18;4.93;;;21.20;56.70;;;;;;5016637;28;20054;-84
2023/04/04 12:37:54;;;;;;;9.32;4.50;;;20.60;57.10;;;;;;5000654;28;20041;-86
2023/04/04 12:40:21;;;;;;;9.82;4.80;;;20.60;57.00;;;;;;5032602;28;20048;-85
2023/04/04 12:42:48;;;;;;;9.60;4.60;;;20.30;57.50;;;;;;5016240;28;20119;-85
2023/04/04 12:45:15;;;;;;;11.15;4.30;;;20.80;58.90;;;;;;5016827;28;20046;-85
2023/04/04 12:47:42;;;;;;;11.30;4.68;;;20.90;55.10;;;;;;4999150;28;20116;-88
2023/04/04 12:50:09;;;;;;;9.25;4.47;;;21.30;56.30;;;;;;5016177;28;20050;-84
2023/04/04 12:52:36;;;;;;;10.75;4.38;;;21.70;57.20;;;;;;5031137;28;20042;-86
2023/04/04 12:55:02;;;;;;;14.38;4.55;;;22.30;56.10;;;;;;5016511;28;20042;-84
2023/04/04 12:57:34;;;;;;;13.98;4.57;;;22.40;55.20;;;;;;5015515;28;20095;-84
2023/04/04 13:00:01;;;;;;;9.00;4.05;;;22.50;54.30;;;;;;5015762;28;20522;-85
2023/04/04 13:02:28;;;;;;;9.98;4.45;;;22.40;54.60;;;;;;5016412;28;20145;-84
2023/04/04 13:04:55;;;;;;;13.38;4.70;;;22.00;54.30;;;;;;5015407;28;20056;-85
2023/04/04 13:07:22;;;;;;;11.07;4.35;;;22.20;56.60;;;;;;5015301;28;20050;-85
2023/04/04 13:09:48;;;;;;;8.45;4.10;;;22.60;55.20;;;;;;5016262;28;20077;-86
2023/04/04 13:12:15;;;;;;;9.00;4.40;;;22.40;55.60;;;;;;5016569;28;20868;-84
2023/04/04 13:14:42;;;;;;;10.02;4.47;;;22.80;52.60;;;;;;5014776;28;20334;-85